RYR9BL EIDW-EGNT
Flight info
| Callsign | RYR9BL |
|---|---|
| Flight time | 0h 43m |
| Altitude | 35000 |
| Route | ENDEQ3J ENDEQ Q36 ALAVA Z195 MALUD UL975 WAL DCT POL |
| Aircraft | B738/M-SDE2E3FGHIRWXY/LB1 |
Departure
| Time | 2026-05-04 20:59 |
|---|---|
| Airport | Dublin Airport (EIDW) |
Arrival
| Time | 2026-05-04 21:42 |
|---|---|
| Airport | Newcastle International Airport (EGNT) |
| Time | Latitude | Longitude | Altitude | Speed | Heading |
|---|---|---|---|---|---|
| 2026-05-04 20:19 | 53.43102 | -6.24829 | 215 ft | 0 kts | 185° |
| 2026-05-04 20:50 | 53.43115 | -6.24827 | 215 ft | 4 kts | 183° |
| 2026-05-04 20:50 | 53.43142 | -6.24827 | 210 ft | 4 kts | 176° |
| 2026-05-04 20:51 | 53.43169 | -6.24832 | 210 ft | 4 kts | 167° |
| 2026-05-04 20:51 | 53.43194 | -6.24846 | 214 ft | 4 kts | 147° |
| 2026-05-04 20:51 | 53.43209 | -6.24873 | 216 ft | 3 kts | 97° |
| 2026-05-04 20:51 | 53.43210 | -6.24877 | 216 ft | 1 kts | 94° |
| 2026-05-04 20:55 | 53.43209 | -6.24870 | 216 ft | 3 kts | 94° |
| 2026-05-04 20:55 | 53.43205 | -6.24795 | 210 ft | 9 kts | 95° |
| 2026-05-04 20:56 | 53.43199 | -6.24673 | 215 ft | 11 kts | 95° |
| 2026-05-04 20:56 | 53.43192 | -6.24550 | 210 ft | 10 kts | 96° |
| 2026-05-04 20:56 | 53.43196 | -6.24443 | 210 ft | 9 kts | 58° |
| 2026-05-04 20:56 | 53.43251 | -6.24413 | 210 ft | 9 kts | 5° |
| 2026-05-04 20:57 | 53.43310 | -6.24406 | 218 ft | 8 kts | 356° |
| 2026-05-04 20:57 | 53.43346 | -6.24474 | 210 ft | 9 kts | 281° |
| 2026-05-04 20:57 | 53.43390 | -6.24555 | 210 ft | 11 kts | 346° |
| 2026-05-04 20:57 | 53.43465 | -6.24550 | 212 ft | 11 kts | 6° |
| 2026-05-04 20:58 | 53.43525 | -6.24585 | 221 ft | 9 kts | 283° |
| 2026-05-04 20:58 | 53.43526 | -6.24601 | 220 ft | 0 kts | 275° |
| 2026-05-04 20:58 | 53.43526 | -6.24614 | 215 ft | 9 kts | 275° |
| 2026-05-04 20:58 | 53.43554 | -6.25118 | 210 ft | 82 kts | 275° |
| 2026-05-04 20:59 | 53.43628 | -6.26470 | 212 ft | 147 kts | 275° |
| 2026-05-04 20:59 | 53.43740 | -6.28439 | 417 ft | 182 kts | 278° |
| 2026-05-04 20:59 | 53.43938 | -6.30523 | 1285 ft | 176 kts | 288° |
| 2026-05-04 20:59 | 53.44560 | -6.32223 | 2175 ft | 166 kts | 319° |
| 2026-05-04 21:00 | 53.45415 | -6.33296 | 3266 ft | 147 kts | 338° |
| 2026-05-04 21:00 | 53.46420 | -6.33690 | 3849 ft | 160 kts | 5° |
| 2026-05-04 21:00 | 53.47578 | -6.33063 | 4135 ft | 190 kts | 27° |
| 2026-05-04 21:00 | 53.48804 | -6.32275 | 4933 ft | 185 kts | 17° |
| 2026-05-04 21:01 | 53.49976 | -6.31741 | 6094 ft | 160 kts | 17° |
| 2026-05-04 21:01 | 53.50958 | -6.31158 | 7097 ft | 141 kts | 21° |
| 2026-05-04 21:01 | 53.51686 | -6.30145 | 7600 ft | 150 kts | 68° |
| 2026-05-04 21:01 | 53.51661 | -6.28245 | 7797 ft | 179 kts | 99° |
| 2026-05-04 21:02 | 53.51456 | -6.26049 | 8028 ft | 205 kts | 96° |
| 2026-05-04 21:02 | 53.51268 | -6.23561 | 8245 ft | 223 kts | 95° |
| 2026-05-04 21:02 | 53.51079 | -6.20868 | 8442 ft | 243 kts | 95° |
| 2026-05-04 21:02 | 53.50885 | -6.17951 | 8741 ft | 258 kts | 94° |
| 2026-05-04 21:03 | 53.50690 | -6.14856 | 8999 ft | 277 kts | 94° |
| 2026-05-04 21:03 | 53.50490 | -6.11573 | 9415 ft | 286 kts | 95° |
| 2026-05-04 21:03 | 53.50291 | -6.08251 | 9426 ft | 285 kts | 94° |
| 2026-05-04 21:03 | 53.50096 | -6.04932 | 9441 ft | 286 kts | 94° |
| 2026-05-04 21:04 | 53.49903 | -6.01604 | 9447 ft | 287 kts | 94° |
| 2026-05-04 21:04 | 53.49711 | -5.98275 | 9446 ft | 286 kts | 94° |
| 2026-05-04 21:04 | 53.49519 | -5.94947 | 9447 ft | 286 kts | 94° |
| 2026-05-04 21:04 | 53.49326 | -5.91620 | 9442 ft | 286 kts | 95° |
| 2026-05-04 21:05 | 53.49132 | -5.88291 | 9442 ft | 286 kts | 95° |
| 2026-05-04 21:05 | 53.48936 | -5.84965 | 9440 ft | 286 kts | 95° |
| 2026-05-04 21:05 | 53.48642 | -5.81661 | 9470 ft | 289 kts | 100° |
| 2026-05-04 21:05 | 53.48222 | -5.78323 | 10089 ft | 293 kts | 101° |
| 2026-05-04 21:06 | 53.47775 | -5.74919 | 10621 ft | 309 kts | 102° |
| 2026-05-04 21:06 | 53.47298 | -5.71257 | 10848 ft | 332 kts | 101° |
| 2026-05-04 21:06 | 53.46805 | -5.67417 | 11443 ft | 341 kts | 101° |
| 2026-05-04 21:06 | 53.46308 | -5.63509 | 12241 ft | 344 kts | 101° |
| 2026-05-04 21:07 | 53.45810 | -5.59566 | 13115 ft | 346 kts | 101° |
| 2026-05-04 21:07 | 53.45309 | -5.55597 | 13943 ft | 350 kts | 101° |
| 2026-05-04 21:07 | 53.44799 | -5.51574 | 14722 ft | 353 kts | 100° |
| 2026-05-04 21:07 | 53.44390 | -5.47484 | 15362 ft | 362 kts | 94° |
| 2026-05-04 21:08 | 53.44248 | -5.43160 | 15630 ft | 380 kts | 90° |
| 2026-05-04 21:08 | 53.44196 | -5.38702 | 16282 ft | 385 kts | 90° |
| 2026-05-04 21:08 | 53.44138 | -5.34192 | 17062 ft | 387 kts | 90° |
| 2026-05-04 21:08 | 53.44052 | -5.29654 | 17744 ft | 392 kts | 91° |
| 2026-05-04 21:09 | 53.43939 | -5.25060 | 18474 ft | 395 kts | 91° |
| 2026-05-04 21:09 | 53.43811 | -5.20440 | 19106 ft | 398 kts | 91° |
| 2026-05-04 21:09 | 53.43677 | -5.15783 | 19698 ft | 402 kts | 91° |
| 2026-05-04 21:09 | 53.43540 | -5.11070 | 20291 ft | 406 kts | 91° |
| 2026-05-04 21:10 | 53.43403 | -5.06321 | 20896 ft | 409 kts | 91° |
| 2026-05-04 21:10 | 53.43263 | -5.01536 | 21463 ft | 413 kts | 91° |
| 2026-05-04 21:10 | 53.43127 | -4.96914 | 22037 ft | 415 kts | 91° |
| 2026-05-04 21:10 | 53.42982 | -4.92057 | 22602 ft | 419 kts | 91° |
| 2026-05-04 21:11 | 53.42835 | -4.87217 | 23124 ft | 423 kts | 91° |
| 2026-05-04 21:11 | 53.42679 | -4.82282 | 23669 ft | 425 kts | 92° |
| 2026-05-04 21:11 | 53.42511 | -4.77315 | 24116 ft | 428 kts | 92° |
| 2026-05-04 21:11 | 53.42337 | -4.72319 | 24584 ft | 430 kts | 91° |
| 2026-05-04 21:12 | 53.42160 | -4.67309 | 25075 ft | 431 kts | 91° |
| 2026-05-04 21:12 | 53.41982 | -4.62287 | 25558 ft | 432 kts | 91° |
| 2026-05-04 21:12 | 53.41802 | -4.57236 | 25893 ft | 437 kts | 91° |
| 2026-05-04 21:12 | 53.41618 | -4.52125 | 26270 ft | 440 kts | 91° |
| 2026-05-04 21:13 | 53.41431 | -4.47003 | 26712 ft | 442 kts | 91° |
| 2026-05-04 21:13 | 53.41241 | -4.41848 | 27153 ft | 443 kts | 91° |
| 2026-05-04 21:13 | 53.41049 | -4.36681 | 27548 ft | 445 kts | 91° |
| 2026-05-04 21:13 | 53.40853 | -4.31489 | 27932 ft | 448 kts | 91° |
| 2026-05-04 21:14 | 53.40654 | -4.26266 | 28307 ft | 450 kts | 91° |
| 2026-05-04 21:14 | 53.40452 | -4.21026 | 28709 ft | 451 kts | 91° |
| 2026-05-04 21:14 | 53.40247 | -4.15791 | 29240 ft | 449 kts | 91° |
| 2026-05-04 21:14 | 53.40042 | -4.10583 | 29878 ft | 446 kts | 91° |
| 2026-05-04 21:15 | 53.39836 | -4.05386 | 30105 ft | 451 kts | 91° |
| 2026-05-04 21:15 | 53.39624 | -4.00110 | 30285 ft | 456 kts | 92° |
| 2026-05-04 21:15 | 53.39517 | -3.95076 | 30648 ft | 454 kts | 86° |
| 2026-05-04 21:15 | 53.39737 | -3.89823 | 31131 ft | 450 kts | 83° |
| 2026-05-04 21:16 | 53.40046 | -3.84618 | 31540 ft | 449 kts | 82° |
| 2026-05-04 21:16 | 53.40359 | -3.79405 | 31852 ft | 451 kts | 83° |
| 2026-05-04 21:16 | 53.40649 | -3.74167 | 32163 ft | 452 kts | 83° |
| 2026-05-04 21:16 | 53.40914 | -3.68923 | 32544 ft | 451 kts | 84° |
| 2026-05-04 21:17 | 53.41166 | -3.63694 | 32936 ft | 451 kts | 84° |
| 2026-05-04 21:17 | 53.41306 | -3.58411 | 32981 ft | 457 kts | 90° |
| 2026-05-04 21:17 | 53.40833 | -3.47763 | 33002 ft | 458 kts | 94° |
| 2026-05-04 21:18 | 53.40280 | -3.37175 | 32999 ft | 454 kts | 93° |
| 2026-05-04 21:18 | 53.39804 | -3.26705 | 32997 ft | 454 kts | 93° |
| 2026-05-04 21:19 | 53.39655 | -3.16172 | 32987 ft | 451 kts | 81° |
| 2026-05-04 21:19 | 53.41498 | -3.06361 | 32987 ft | 449 kts | 61° |
| 2026-05-04 21:20 | 53.44567 | -2.97583 | 32997 ft | 451 kts | 58° |
| 2026-05-04 21:20 | 53.47791 | -2.88518 | 33001 ft | 454 kts | 59° |
| 2026-05-04 21:21 | 53.50985 | -2.79348 | 32998 ft | 456 kts | 59° |
| 2026-05-04 21:21 | 53.54158 | -2.70113 | 32997 ft | 458 kts | 59° |
| 2026-05-04 21:22 | 53.57337 | -2.60810 | 32997 ft | 459 kts | 59° |
| 2026-05-04 21:22 | 53.60540 | -2.51404 | 32996 ft | 461 kts | 59° |
| 2026-05-04 21:23 | 53.63654 | -2.42231 | 33002 ft | 462 kts | 60° |
| 2026-05-04 21:23 | 53.66867 | -2.32727 | 32997 ft | 464 kts | 60° |
| 2026-05-04 21:24 | 53.70030 | -2.23340 | 33004 ft | 463 kts | 60° |
| 2026-05-04 21:24 | 53.73236 | -2.14070 | 32975 ft | 459 kts | 52° |
| 2026-05-04 21:25 | 53.75461 | -2.10326 | 32669 ft | 447 kts | 35° |
| 2026-05-04 21:25 | 53.78166 | -2.07818 | 31976 ft | 443 kts | 20° |
| 2026-05-04 21:25 | 53.81085 | -2.06057 | 30966 ft | 450 kts | 17° |
| 2026-05-04 21:25 | 53.84066 | -2.04379 | 29972 ft | 457 kts | 17° |
| 2026-05-04 21:26 | 53.87090 | -2.02688 | 28861 ft | 460 kts | 17° |
| 2026-05-04 21:26 | 53.90135 | -2.00953 | 27756 ft | 463 kts | 18° |
| 2026-05-04 21:26 | 53.93093 | -1.99233 | 26817 ft | 464 kts | 18° |
| 2026-05-04 21:26 | 53.96123 | -1.97442 | 26009 ft | 461 kts | 18° |
| 2026-05-04 21:27 | 53.99138 | -1.95644 | 25319 ft | 455 kts | 18° |
| 2026-05-04 21:27 | 54.02094 | -1.93875 | 24656 ft | 449 kts | 18° |
| 2026-05-04 21:27 | 54.05030 | -1.92116 | 24011 ft | 444 kts | 18° |
| 2026-05-04 21:27 | 54.07924 | -1.90383 | 23322 ft | 439 kts | 18° |
| 2026-05-04 21:28 | 54.09823 | -1.89245 | 22834 ft | 436 kts | 18° |
| 2026-05-04 21:28 | 54.12670 | -1.87538 | 22168 ft | 430 kts | 18° |
| 2026-05-04 21:28 | 54.15503 | -1.86004 | 21522 ft | 424 kts | 13° |
| 2026-05-04 21:28 | 54.18364 | -1.85004 | 20900 ft | 418 kts | 8° |
| 2026-05-04 21:29 | 54.21217 | -1.84216 | 20272 ft | 413 kts | 7° |
| 2026-05-04 21:29 | 54.24042 | -1.83461 | 19677 ft | 408 kts | 8° |
| 2026-05-04 21:29 | 54.26825 | -1.82677 | 19066 ft | 404 kts | 8° |
| 2026-05-04 21:29 | 54.29584 | -1.81854 | 18464 ft | 400 kts | 9° |
| 2026-05-04 21:30 | 54.32317 | -1.81007 | 17807 ft | 397 kts | 9° |
| 2026-05-04 21:30 | 54.35017 | -1.80156 | 17167 ft | 393 kts | 9° |
| 2026-05-04 21:30 | 54.37689 | -1.79311 | 16566 ft | 388 kts | 9° |
| 2026-05-04 21:30 | 54.40338 | -1.78473 | 15958 ft | 384 kts | 9° |
| 2026-05-04 21:31 | 54.45621 | -1.76802 | 14397 ft | 387 kts | 9° |
| 2026-05-04 21:31 | 54.48270 | -1.75964 | 13606 ft | 388 kts | 9° |
| 2026-05-04 21:31 | 54.50904 | -1.75128 | 12730 ft | 379 kts | 10° |
| 2026-05-04 21:32 | 54.53462 | -1.74315 | 11981 ft | 367 kts | 10° |
| 2026-05-04 21:32 | 54.55902 | -1.73537 | 11542 ft | 348 kts | 10° |
| 2026-05-04 21:32 | 54.58235 | -1.72793 | 11116 ft | 333 kts | 9° |
| 2026-05-04 21:32 | 54.60465 | -1.72082 | 10709 ft | 319 kts | 9° |
| 2026-05-04 21:33 | 54.62610 | -1.71397 | 10331 ft | 308 kts | 9° |
| 2026-05-04 21:33 | 54.64681 | -1.70736 | 9968 ft | 298 kts | 9° |
| 2026-05-04 21:33 | 54.66645 | -1.70107 | 9924 ft | 277 kts | 9° |
| 2026-05-04 21:33 | 54.68553 | -1.69496 | 9324 ft | 278 kts | 9° |
| 2026-05-04 21:34 | 54.70426 | -1.68858 | 8917 ft | 272 kts | 13° |
| 2026-05-04 21:34 | 54.72205 | -1.67917 | 8615 ft | 263 kts | 18° |
| 2026-05-04 21:34 | 54.73910 | -1.66890 | 8308 ft | 255 kts | 19° |
| 2026-05-04 21:34 | 54.75556 | -1.65881 | 8011 ft | 247 kts | 19° |
| 2026-05-04 21:35 | 54.77154 | -1.64910 | 7763 ft | 241 kts | 18° |
| 2026-05-04 21:35 | 54.78721 | -1.63966 | 7485 ft | 236 kts | 18° |
| 2026-05-04 21:35 | 54.80268 | -1.63040 | 7037 ft | 238 kts | 18° |
| 2026-05-04 21:35 | 54.81863 | -1.62090 | 6522 ft | 246 kts | 18° |
| 2026-05-04 21:36 | 54.83486 | -1.61128 | 6156 ft | 249 kts | 18° |
| 2026-05-04 21:36 | 54.85094 | -1.60175 | 6100 ft | 239 kts | 19° |
| 2026-05-04 21:36 | 54.86642 | -1.59260 | 5968 ft | 233 kts | 19° |
| 2026-05-04 21:36 | 54.88208 | -1.58334 | 5530 ft | 240 kts | 19° |
| 2026-05-04 21:37 | 54.89783 | -1.57403 | 5178 ft | 242 kts | 19° |
| 2026-05-04 21:37 | 54.91388 | -1.56454 | 4830 ft | 245 kts | 19° |
| 2026-05-04 21:37 | 54.93007 | -1.55496 | 4454 ft | 248 kts | 19° |
| 2026-05-04 21:37 | 54.94659 | -1.54518 | 4038 ft | 252 kts | 19° |
| 2026-05-04 21:38 | 54.96324 | -1.53532 | 3775 ft | 250 kts | 19° |
| 2026-05-04 21:38 | 54.97929 | -1.52581 | 3687 ft | 241 kts | 19° |
| 2026-05-04 21:38 | 54.99485 | -1.51658 | 3543 ft | 234 kts | 19° |
| 2026-05-04 21:38 | 55.00997 | -1.50762 | 3288 ft | 233 kts | 20° |
| 2026-05-04 21:39 | 55.02553 | -1.49837 | 2904 ft | 237 kts | 20° |
| 2026-05-04 21:39 | 55.04129 | -1.48901 | 2570 ft | 239 kts | 18° |
| 2026-05-04 21:39 | 55.05732 | -1.48612 | 2470 ft | 232 kts | 347° |
| 2026-05-04 21:39 | 55.07042 | -1.50015 | 2290 ft | 228 kts | 309° |
| 2026-05-04 21:40 | 55.07522 | -1.52477 | 2125 ft | 212 kts | 270° |
| 2026-05-04 21:40 | 55.07408 | -1.54948 | 1852 ft | 198 kts | 259° |
| 2026-05-04 21:40 | 55.06939 | -1.57115 | 1607 ft | 185 kts | 245° |
| 2026-05-04 21:40 | 55.06418 | -1.59085 | 1369 ft | 170 kts | 246° |
| 2026-05-04 21:41 | 55.05947 | -1.60859 | 1132 ft | 152 kts | 246° |
| 2026-05-04 21:41 | 55.05502 | -1.62485 | 993 ft | 151 kts | 245° |
| 2026-05-04 21:41 | 55.05051 | -1.64129 | 693 ft | 145 kts | 245° |
| 2026-05-04 21:41 | 55.04657 | -1.65660 | 478 ft | 133 kts | 249° |
| 2026-05-04 21:42 | 55.04298 | -1.67062 | 314 ft | 123 kts | 248° |
| 2026-05-04 21:42 | 55.03959 | -1.68355 | 248 ft | 108 kts | 245° |
| 2026-05-04 21:42 | 55.03709 | -1.69297 | 254 ft | 55 kts | 245° |
| 2026-05-04 21:42 | 55.03604 | -1.69689 | 258 ft | 23 kts | 244° |
| 2026-05-04 21:43 | 55.03584 | -1.69959 | 261 ft | 22 kts | 274° |
| 2026-05-04 21:43 | 55.03593 | -1.70174 | 263 ft | 7 kts | 275° |
| 2026-05-04 21:43 | 55.03597 | -1.70258 | 264 ft | 7 kts | 274° |
| 2026-05-04 21:43 | 55.03600 | -1.70339 | 266 ft | 7 kts | 274° |
| 2026-05-04 21:44 | 55.03617 | -1.70415 | 266 ft | 7 kts | 315° |
| 2026-05-04 21:44 | 55.03663 | -1.70438 | 266 ft | 7 kts | 2° |
| 2026-05-04 21:44 | 55.03701 | -1.70466 | 266 ft | 7 kts | 281° |
| 2026-05-04 21:44 | 55.03698 | -1.70543 | 266 ft | 4 kts | 264° |
| 2026-05-04 21:45 | 55.03697 | -1.70569 | 266 ft | 0 kts | 264° |